createdAt,value
2022-08-09T00:00:20.978Z,26.4
2022-08-09T00:10:24.707Z,26.3
2022-08-09T00:20:25.782Z,26.3
2022-08-09T00:30:27.710Z,26.2
2022-08-09T00:40:31.023Z,26.2
2022-08-09T00:50:32.854Z,26.1
2022-08-09T01:00:35.358Z,26.1
2022-08-09T01:10:37.385Z,26
2022-08-09T01:20:39.129Z,26
2022-08-09T01:30:52.002Z,25.9
2022-08-09T01:40:43.852Z,25.9
2022-08-09T01:50:48.080Z,25.8
2022-08-09T02:00:50.410Z,25.8
2022-08-09T02:10:51.704Z,25.7
2022-08-09T02:20:52.976Z,25.7
2022-08-09T02:30:55.586Z,25.6
2022-08-09T02:50:59.424Z,25.5
2022-08-09T03:01:01.804Z,25.5
2022-08-09T03:11:04.104Z,25.4
2022-08-09T03:21:06.533Z,25.4
2022-08-09T03:31:10.293Z,25.3
2022-08-09T03:51:44.107Z,25.2
2022-08-09T04:01:15.941Z,25.2
2022-08-09T04:11:17.675Z,25.1
2022-08-09T04:21:20.269Z,25
2022-08-09T04:31:22.865Z,25
2022-08-09T04:41:32.038Z,24.9
2022-08-09T04:51:27.511Z,24.9
2022-08-09T05:01:29.492Z,24.8
2022-08-09T05:11:32.584Z,24.8
2022-08-09T05:21:36.551Z,24.7
2022-08-09T05:31:44.908Z,24.7
2022-08-09T05:41:37.843Z,24.7
2022-08-09T05:51:42.535Z,24.7
2022-08-09T06:11:56.959Z,24.7
2022-08-09T06:21:50.285Z,24.7
2022-08-09T06:32:09.116Z,24.8
2022-08-09T06:51:52.235Z,24.9
2022-08-09T07:01:59.494Z,24.9
2022-08-09T07:11:55.862Z,25
2022-08-09T07:21:58.846Z,25.1
2022-08-09T07:32:00.815Z,25.2
2022-08-09T07:42:02.521Z,25.4
2022-08-09T07:52:09.935Z,25.5
2022-08-09T08:02:07.113Z,25.6
2022-08-09T08:12:25.208Z,25.7
2022-08-09T08:22:11.632Z,25.8
2022-08-09T08:32:13.492Z,25.9
2022-08-09T08:42:15.758Z,25.9
2022-08-09T08:52:35.254Z,26
2022-08-09T09:02:20.921Z,26
2022-08-09T09:12:21.781Z,26.1
2022-08-09T09:22:23.793Z,26.1
2022-08-09T09:32:32.618Z,26.1
2022-08-09T09:42:28.129Z,26.2
2022-08-09T09:52:43.285Z,26.2
2022-08-09T10:02:32.969Z,26.2
2022-08-09T10:12:34.702Z,26.2
2022-08-09T10:22:36.509Z,26.2
2022-08-09T10:32:40.044Z,26.2
2022-08-09T10:42:40.404Z,26.2
2022-08-09T10:52:42.747Z,26.3
2022-08-09T11:03:07.243Z,26.3
2022-08-09T11:12:46.665Z,26.3
2022-08-09T11:32:51.985Z,26.3
2022-08-09T11:53:03.837Z,26.3
2022-08-09T12:13:03.373Z,26.4
2022-08-09T12:23:03.205Z,26.4
2022-08-09T12:33:05.203Z,26.4
2022-08-09T12:43:07.595Z,26.4
2022-08-09T12:53:18.483Z,26.4
2022-08-09T13:03:20.575Z,26.4
2022-08-09T13:13:13.808Z,26.4
2022-08-09T13:24:06.500Z,26.4
2022-08-09T13:33:18.996Z,26.4
2022-08-09T13:43:21.597Z,26.5
2022-08-09T14:04:02.038Z,26.5
2022-08-09T14:14:16.672Z,26.5
2022-08-09T14:23:40.203Z,26.5
2022-08-09T14:33:38.019Z,26.5
2022-08-09T14:43:47.150Z,26.5
2022-08-09T14:53:38.835Z,26.5
2022-08-09T15:03:38.725Z,26.5
2022-08-09T15:13:48.769Z,26.5
2022-08-09T15:23:56.685Z,26.5
2022-08-09T15:34:04.449Z,26.6
2022-08-09T15:43:47.112Z,26.6
2022-08-09T15:54:03.031Z,26.6
2022-08-09T16:03:51.249Z,26.6
2022-08-09T16:14:04.400Z,26.6
2022-08-09T16:23:59.013Z,26.6
2022-08-09T16:34:02.734Z,26.6
2022-08-09T16:43:59.742Z,26.6
2022-08-09T16:54:26.434Z,26.6
2022-08-09T17:04:05.226Z,26.6
2022-08-09T17:14:06.115Z,26.6
2022-08-09T17:24:21.563Z,26.6
2022-08-09T17:34:20.433Z,26.6
2022-08-09T17:44:39.125Z,26.6
2022-08-09T17:54:15.277Z,26.6
2022-08-09T18:04:17.027Z,26.6
2022-08-09T18:14:19.544Z,26.7
2022-08-09T18:24:21.289Z,26.7
2022-08-09T18:34:24.036Z,26.7
2022-08-09T18:44:26.091Z,26.7
2022-08-09T18:54:34.826Z,26.7
2022-08-09T19:04:36.776Z,26.7
2022-08-09T19:14:38.592Z,26.7
2022-08-09T19:25:07.352Z,26.7
2022-08-09T19:34:46.724Z,26.7
2022-08-09T19:44:49.485Z,26.7
2022-08-09T19:54:47.495Z,26.7
2022-08-09T20:14:53.203Z,26.7
2022-08-09T20:24:54.593Z,26.7
2022-08-09T20:34:55.795Z,26.7
2022-08-09T20:45:28.426Z,26.7
2022-08-09T21:15:04.654Z,26.7
2022-08-09T21:25:06.501Z,26.7
2022-08-09T21:35:08.752Z,26.7
2022-08-09T21:45:15.825Z,26.7
2022-08-09T21:55:12.962Z,26.6
2022-08-09T22:05:16.955Z,26.6
2022-08-09T22:15:16.929Z,26.6
2022-08-09T22:26:04.977Z,26.6
2022-08-09T22:36:00.255Z,26.6
2022-08-09T22:48:07.138Z,26.5
2022-08-09T22:55:27.199Z,26.5
2022-08-09T23:05:28.339Z,26.5
2022-08-09T23:15:30.764Z,26.5
2022-08-09T23:25:32.983Z,26.5
2022-08-09T23:36:05.349Z,26.4
2022-08-09T23:45:38.408Z,26.4
2022-08-09T23:55:39.549Z,26.4
